<?xml version="1.0" encoding="UTF-8" standalone="no" ?>
<gpx xmlns="http://www.topografix.com/GPX/1/1" xmlns:xsi="http://www.w3.org/2001/XMLSchema-instance" xsi:schemaLocation="http://www.topografix.com/GPX/1/1 http://www.topografix.com/GPX/1/1/gpx.xsd" version="1.1" creator="VisuGPX - https://www.visugpx.com">
  <metadata>
    <name>boucles beaumont</name>
    <desc><![CDATA[boucles beaumont du périgord]]></desc>
  </metadata>
  <trk>
    <name><![CDATA[BBmt46]]></name>
    <trkseg>
      <trkpt lat="44.77323" lon="0.76685">
        <ele>126</ele>
        <time>2009-01-15T13:23:55Z</time>
      </trkpt>
      <trkpt lat="44.7734" lon="0.76673">
        <ele>118</ele>
        <time>2009-01-15T13:25:41Z</time>
      </trkpt>
      <trkpt lat="44.77358" lon="0.7666">
        <ele>118</ele>
        <time>2009-01-15T13:25:45Z</time>
      </trkpt>
      <trkpt lat="44.77375" lon="0.7665">
        <ele>118</ele>
        <time>2009-01-15T13:25:48Z</time>
      </trkpt>
      <trkpt lat="44.77393" lon="0.76635">
        <ele>118</ele>
        <time>2009-01-15T13:25:52Z</time>
      </trkpt>
      <trkpt lat="44.7741" lon="0.76625">
        <ele>117</ele>
        <time>2009-01-15T13:25:55Z</time>
      </trkpt>
      <trkpt lat="44.7743" lon="0.76613">
        <ele>116</ele>
        <time>2009-01-15T13:25:58Z</time>
      </trkpt>
      <trkpt lat="44.77453" lon="0.76605">
        <ele>115</ele>
        <time>2009-01-15T13:26:02Z</time>
      </trkpt>
      <trkpt lat="44.77473" lon="0.7659">
        <ele>115</ele>
        <time>2009-01-15T13:26:06Z</time>
      </trkpt>
      <trkpt lat="44.77488" lon="0.76573">
        <ele>116</ele>
        <time>2009-01-15T13:26:10Z</time>
      </trkpt>
      <trkpt lat="44.77498" lon="0.76545">
        <ele>117</ele>
        <time>2009-01-15T13:26:20Z</time>
      </trkpt>
      <trkpt lat="44.77493" lon="0.76515">
        <ele>118</ele>
        <time>2009-01-15T13:26:24Z</time>
      </trkpt>
      <trkpt lat="44.7749" lon="0.76488">
        <ele>121</ele>
        <time>2009-01-15T13:26:27Z</time>
      </trkpt>
      <trkpt lat="44.7751" lon="0.76468">
        <ele>121</ele>
        <time>2009-01-15T13:26:41Z</time>
      </trkpt>
      <trkpt lat="44.7753" lon="0.7646">
        <ele>120</ele>
        <time>2009-01-15T13:26:44Z</time>
      </trkpt>
      <trkpt lat="44.77545" lon="0.76445">
        <ele>121</ele>
        <time>2009-01-15T13:26:49Z</time>
      </trkpt>
      <trkpt lat="44.77545" lon="0.76418">
        <ele>124</ele>
        <time>2009-01-15T13:27:03Z</time>
      </trkpt>
      <trkpt lat="44.77545" lon="0.76385">
        <ele>126</ele>
        <time>2009-01-15T13:27:07Z</time>
      </trkpt>
      <trkpt lat="44.7755" lon="0.7636">
        <ele>126</ele>
        <time>2009-01-15T13:27:19Z</time>
      </trkpt>
      <trkpt lat="44.7757" lon="0.76343">
        <ele>128</ele>
        <time>2009-01-15T13:27:23Z</time>
      </trkpt>
      <trkpt lat="44.7759" lon="0.76328">
        <ele>129</ele>
        <time>2009-01-15T13:27:26Z</time>
      </trkpt>
      <trkpt lat="44.7761" lon="0.76313">
        <ele>130</ele>
        <time>2009-01-15T13:27:29Z</time>
      </trkpt>
      <trkpt lat="44.77628" lon="0.763">
        <ele>131</ele>
        <time>2009-01-15T13:27:32Z</time>
      </trkpt>
      <trkpt lat="44.77648" lon="0.7629">
        <ele>132</ele>
        <time>2009-01-15T13:27:35Z</time>
      </trkpt>
      <trkpt lat="44.77668" lon="0.76283">
        <ele>131</ele>
        <time>2009-01-15T13:27:38Z</time>
      </trkpt>
      <trkpt lat="44.77688" lon="0.76278">
        <ele>130</ele>
        <time>2009-01-15T13:27:41Z</time>
      </trkpt>
      <trkpt lat="44.77708" lon="0.76273">
        <ele>129</ele>
        <time>2009-01-15T13:27:44Z</time>
      </trkpt>
      <trkpt lat="44.77733" lon="0.76268">
        <ele>133</ele>
        <time>2009-01-15T13:27:48Z</time>
      </trkpt>
      <trkpt lat="44.77755" lon="0.76263">
        <ele>133</ele>
        <time>2009-01-15T13:27:52Z</time>
      </trkpt>
      <trkpt lat="44.77775" lon="0.76253">
        <ele>134</ele>
        <time>2009-01-15T13:27:56Z</time>
      </trkpt>
      <trkpt lat="44.77793" lon="0.76238">
        <ele>130</ele>
        <time>2009-01-15T13:28:02Z</time>
      </trkpt>
      <trkpt lat="44.7781" lon="0.7623">
        <ele>128</ele>
        <time>2009-01-15T13:28:09Z</time>
      </trkpt>
      <trkpt lat="44.77813" lon="0.76203">
        <ele>127</ele>
        <time>2009-01-15T13:28:17Z</time>
      </trkpt>
      <trkpt lat="44.7781" lon="0.76173">
        <ele>125</ele>
        <time>2009-01-15T13:28:23Z</time>
      </trkpt>
      <trkpt lat="44.77805" lon="0.76148">
        <ele>123</ele>
        <time>2009-01-15T13:28:28Z</time>
      </trkpt>
      <trkpt lat="44.77795" lon="0.76123">
        <ele>121</ele>
        <time>2009-01-15T13:28:33Z</time>
      </trkpt>
      <trkpt lat="44.77785" lon="0.76098">
        <ele>117</ele>
        <time>2009-01-15T13:28:45Z</time>
      </trkpt>
      <trkpt lat="44.7778" lon="0.7607">
        <ele>115</ele>
        <time>2009-01-15T13:28:51Z</time>
      </trkpt>
      <trkpt lat="44.77778" lon="0.76043">
        <ele>113</ele>
        <time>2009-01-15T13:28:57Z</time>
      </trkpt>
      <trkpt lat="44.77773" lon="0.76013">
        <ele>111</ele>
        <time>2009-01-15T13:29:02Z</time>
      </trkpt>
      <trkpt lat="44.7777" lon="0.75983">
        <ele>108</ele>
        <time>2009-01-15T13:29:08Z</time>
      </trkpt>
      <trkpt lat="44.77768" lon="0.75955">
        <ele>106</ele>
        <time>2009-01-15T13:29:13Z</time>
      </trkpt>
      <trkpt lat="44.77765" lon="0.75923">
        <ele>104</ele>
        <time>2009-01-15T13:29:18Z</time>
      </trkpt>
      <trkpt lat="44.77763" lon="0.75893">
        <ele>101</ele>
        <time>2009-01-15T13:29:24Z</time>
      </trkpt>
      <trkpt lat="44.7776" lon="0.75865">
        <ele>99</ele>
        <time>2009-01-15T13:29:29Z</time>
      </trkpt>
      <trkpt lat="44.77758" lon="0.75835">
        <ele>95</ele>
        <time>2009-01-15T13:29:34Z</time>
      </trkpt>
      <trkpt lat="44.77755" lon="0.75808">
        <ele>91</ele>
        <time>2009-01-15T13:29:40Z</time>
      </trkpt>
      <trkpt lat="44.77748" lon="0.75783">
        <ele>87</ele>
        <time>2009-01-15T13:29:45Z</time>
      </trkpt>
      <trkpt lat="44.7774" lon="0.75758">
        <ele>85</ele>
        <time>2009-01-15T13:29:50Z</time>
      </trkpt>
      <trkpt lat="44.77733" lon="0.7573">
        <ele>83</ele>
        <time>2009-01-15T13:29:57Z</time>
      </trkpt>
      <trkpt lat="44.77728" lon="0.75703">
        <ele>81</ele>
        <time>2009-01-15T13:30:03Z</time>
      </trkpt>
      <trkpt lat="44.77725" lon="0.75673">
        <ele>77</ele>
        <time>2009-01-15T13:30:08Z</time>
      </trkpt>
      <trkpt lat="44.77723" lon="0.75645">
        <ele>73</ele>
        <time>2009-01-15T13:30:13Z</time>
      </trkpt>
      <trkpt lat="44.7772" lon="0.75615">
        <ele>69</ele>
        <time>2009-01-15T13:30:19Z</time>
      </trkpt>
      <trkpt lat="44.77715" lon="0.7559">
        <ele>64</ele>
        <time>2009-01-15T13:30:28Z</time>
      </trkpt>
    </trkseg>
  </trk>
</gpx>